sensor_id;sensor_type;location;lat;lon;timestamp;P1;durP1;ratioP1;P2;durP2;ratioP2
10511;SDS011;5304;48.604;2.096;2022-08-03T00:01:41;2.75;;;1.55;;
10511;SDS011;5304;48.604;2.096;2022-08-03T00:04:26;2.13;;;1.50;;
10511;SDS011;5304;48.604;2.096;2022-08-03T00:07:11;4.55;;;1.60;;
10511;SDS011;5304;48.604;2.096;2022-08-03T00:09:55;3.33;;;1.70;;
10511;SDS011;5304;48.604;2.096;2022-08-03T00:12:39;3.78;;;1.75;;
10511;SDS011;5304;48.604;2.096;2022-08-03T00:15:24;2.30;;;1.63;;
10511;SDS011;5304;48.604;2.096;2022-08-03T00:18:08;3.10;;;1.50;;
10511;SDS011;5304;48.604;2.096;2022-08-03T00:20:53;2.47;;;1.67;;
10511;SDS011;5304;48.604;2.096;2022-08-03T00:23:37;2.00;;;1.70;;
10511;SDS011;5304;48.604;2.096;2022-08-03T00:26:22;4.28;;;1.60;;
10511;SDS011;5304;48.604;2.096;2022-08-03T00:29:06;3.50;;;1.70;;
10511;SDS011;5304;48.604;2.096;2022-08-03T00:31:51;5.03;;;1.77;;
10511;SDS011;5304;48.604;2.096;2022-08-03T00:34:35;4.82;;;1.55;;
10511;SDS011;5304;48.604;2.096;2022-08-03T00:37:19;2.67;;;1.50;;
10511;SDS011;5304;48.604;2.096;2022-08-03T00:40:04;4.22;;;1.90;;
10511;SDS011;5304;48.604;2.096;2022-08-03T00:42:51;3.45;;;1.65;;
10511;SDS011;5304;48.604;2.096;2022-08-03T00:45:38;2.50;;;1.45;;
10511;SDS011;5304;48.604;2.096;2022-08-03T00:48:23;3.00;;;1.70;;
10511;SDS011;5304;48.604;2.096;2022-08-03T00:51:08;2.83;;;1.65;;
10511;SDS011;5304;48.604;2.096;2022-08-03T00:53:52;3.80;;;1.70;;
10511;SDS011;5304;48.604;2.096;2022-08-03T00:56:37;3.38;;;1.98;;
10511;SDS011;5304;48.604;2.096;2022-08-03T00:59:22;2.10;;;1.90;;
10511;SDS011;5304;48.604;2.096;2022-08-03T01:02:06;3.40;;;1.92;;
10511;SDS011;5304;48.604;2.096;2022-08-03T01:04:51;2.35;;;1.70;;
10511;SDS011;5304;48.604;2.096;2022-08-03T01:07:40;3.17;;;1.63;;
10511;SDS011;5304;48.604;2.096;2022-08-03T01:13:26;7.60;;;1.80;;
10511;SDS011;5304;48.604;2.096;2022-08-03T01:16:20;3.72;;;1.83;;
10511;SDS011;5304;48.604;2.096;2022-08-03T01:30:40;2.27;;;1.77;;
10511;SDS011;5304;48.604;2.096;2022-08-03T01:33:31;6.73;;;2.20;;
10511;SDS011;5304;48.604;2.096;2022-08-03T01:36:21;3.10;;;1.90;;
10511;SDS011;5304;48.604;2.096;2022-08-03T01:39:08;6.97;;;2.20;;
10511;SDS011;5304;48.604;2.096;2022-08-03T01:41:58;3.43;;;1.90;;
10511;SDS011;5304;48.604;2.096;2022-08-03T01:44:48;6.20;;;2.13;;
10511;SDS011;5304;48.604;2.096;2022-08-03T01:47:35;2.80;;;2.00;;
10511;SDS011;5304;48.604;2.096;2022-08-03T01:50:21;6.17;;;2.07;;
10511;SDS011;5304;48.604;2.096;2022-08-03T01:53:10;5.40;;;2.43;;
10511;SDS011;5304;48.604;2.096;2022-08-03T01:55:58;3.60;;;2.30;;
10511;SDS011;5304;48.604;2.096;2022-08-03T01:58:45;2.57;;;2.20;;
10511;SDS011;5304;48.604;2.096;2022-08-03T02:01:32;2.17;;;1.80;;
10511;SDS011;5304;48.604;2.096;2022-08-03T02:04:19;2.93;;;2.10;;
10511;SDS011;5304;48.604;2.096;2022-08-03T02:07:05;4.07;;;2.23;;
10511;SDS011;5304;48.604;2.096;2022-08-03T02:09:52;4.93;;;2.10;;
10511;SDS011;5304;48.604;2.096;2022-08-03T02:12:38;3.70;;;2.17;;
10511;SDS011;5304;48.604;2.096;2022-08-03T02:15:25;4.47;;;2.00;;
10511;SDS011;5304;48.604;2.096;2022-08-03T02:18:11;5.87;;;2.30;;
10511;SDS011;5304;48.604;2.096;2022-08-03T02:20:58;3.43;;;2.23;;
10511;SDS011;5304;48.604;2.096;2022-08-03T02:23:47;3.33;;;2.10;;
10511;SDS011;5304;48.604;2.096;2022-08-03T02:26:31;3.83;;;2.30;;
10511;SDS011;5304;48.604;2.096;2022-08-03T02:29:21;7.10;;;2.03;;
10511;SDS011;5304;48.604;2.096;2022-08-03T02:32:11;3.13;;;2.30;;
10511;SDS011;5304;48.604;2.096;2022-08-03T02:35:01;2.40;;;2.17;;
10511;SDS011;5304;48.604;2.096;2022-08-03T02:37:50;4.87;;;2.30;;
10511;SDS011;5304;48.604;2.096;2022-08-03T02:40:36;4.93;;;2.13;;
10511;SDS011;5304;48.604;2.096;2022-08-03T02:43:23;3.60;;;2.27;;
10511;SDS011;5304;48.604;2.096;2022-08-03T02:46:09;3.90;;;2.20;;
10511;SDS011;5304;48.604;2.096;2022-08-03T02:48:58;2.67;;;2.23;;
10511;SDS011;5304;48.604;2.096;2022-08-03T02:51:45;3.53;;;2.30;;
10511;SDS011;5304;48.604;2.096;2022-08-03T02:54:31;3.83;;;2.00;;
10511;SDS011;5304;48.604;2.096;2022-08-03T02:57:19;5.00;;;2.40;;
10511;SDS011;5304;48.604;2.096;2022-08-03T03:00:04;4.67;;;2.33;;
10511;SDS011;5304;48.604;2.096;2022-08-03T03:02:52;5.53;;;2.80;;
10511;SDS011;5304;48.604;2.096;2022-08-03T03:05:42;4.90;;;2.70;;
10511;SDS011;5304;48.604;2.096;2022-08-03T03:08:28;3.73;;;2.57;;
10511;SDS011;5304;48.604;2.096;2022-08-03T03:11:14;2.97;;;2.63;;
10511;SDS011;5304;48.604;2.096;2022-08-03T03:14:00;4.90;;;2.80;;
10511;SDS011;5304;48.604;2.096;2022-08-03T03:16:45;5.07;;;2.77;;
10511;SDS011;5304;48.604;2.096;2022-08-03T03:19:31;4.70;;;2.70;;
10511;SDS011;5304;48.604;2.096;2022-08-03T03:22:17;5.50;;;2.70;;
10511;SDS011;5304;48.604;2.096;2022-08-03T03:25:02;5.47;;;2.40;;
10511;SDS011;5304;48.604;2.096;2022-08-03T03:27:48;3.77;;;2.50;;
10511;SDS011;5304;48.604;2.096;2022-08-03T03:30:33;3.37;;;2.47;;
10511;SDS011;5304;48.604;2.096;2022-08-03T03:33:19;4.50;;;2.57;;
10511;SDS011;5304;48.604;2.096;2022-08-03T03:36:05;3.77;;;2.43;;
10511;SDS011;5304;48.604;2.096;2022-08-03T03:38:50;3.53;;;2.40;;
10511;SDS011;5304;48.604;2.096;2022-08-03T03:41:34;7.63;;;2.57;;
10511;SDS011;5304;48.604;2.096;2022-08-03T03:44:19;3.57;;;2.37;;
10511;SDS011;5304;48.604;2.096;2022-08-03T03:47:04;7.50;;;2.67;;
10511;SDS011;5304;48.604;2.096;2022-08-03T03:49:48;3.50;;;2.23;;
10511;SDS011;5304;48.604;2.096;2022-08-03T03:52:34;4.53;;;2.60;;
10511;SDS011;5304;48.604;2.096;2022-08-03T03:55:19;4.93;;;2.37;;
10511;SDS011;5304;48.604;2.096;2022-08-03T03:58:03;5.33;;;2.60;;
10511;SDS011;5304;48.604;2.096;2022-08-03T04:00:48;3.73;;;2.60;;
10511;SDS011;5304;48.604;2.096;2022-08-03T04:03:34;3.63;;;2.80;;
10511;SDS011;5304;48.604;2.096;2022-08-03T04:06:18;4.03;;;2.60;;
10511;SDS011;5304;48.604;2.096;2022-08-03T04:09:21;4.43;;;2.80;;
10511;SDS011;5304;48.604;2.096;2022-08-03T04:12:25;4.53;;;2.60;;
10511;SDS011;5304;48.604;2.096;2022-08-03T04:15:12;8.40;;;2.77;;
10511;SDS011;5304;48.604;2.096;2022-08-03T04:17:58;2.87;;;2.47;;
10511;SDS011;5304;48.604;2.096;2022-08-03T04:20:44;4.20;;;3.10;;
10511;SDS011;5304;48.604;2.096;2022-08-03T04:23:32;4.60;;;2.57;;
10511;SDS011;5304;48.604;2.096;2022-08-03T04:26:19;5.83;;;2.70;;
10511;SDS011;5304;48.604;2.096;2022-08-03T04:29:06;3.23;;;2.80;;
10511;SDS011;5304;48.604;2.096;2022-08-03T04:31:54;6.77;;;3.23;;
10511;SDS011;5304;48.604;2.096;2022-08-03T04:34:40;7.57;;;2.87;;
10511;SDS011;5304;48.604;2.096;2022-08-03T04:37:37;4.80;;;3.00;;
10511;SDS011;5304;48.604;2.096;2022-08-03T04:40:34;7.70;;;3.00;;
10511;SDS011;5304;48.604;2.096;2022-08-03T04:43:22;5.17;;;2.80;;
10511;SDS011;5304;48.604;2.096;2022-08-03T04:46:08;5.37;;;3.00;;
10511;SDS011;5304;48.604;2.096;2022-08-03T04:48:53;4.67;;;3.13;;
10511;SDS011;5304;48.604;2.096;2022-08-03T04:51:38;6.10;;;2.80;;
10511;SDS011;5304;48.604;2.096;2022-08-03T04:54:23;5.03;;;3.10;;
10511;SDS011;5304;48.604;2.096;2022-08-03T04:57:08;3.60;;;2.80;;
10511;SDS011;5304;48.604;2.096;2022-08-03T04:59:53;5.90;;;3.10;;
10511;SDS011;5304;48.604;2.096;2022-08-03T05:02:39;8.87;;;3.30;;
10511;SDS011;5304;48.604;2.096;2022-08-03T05:05:23;9.17;;;3.47;;
10511;SDS011;5304;48.604;2.096;2022-08-03T05:08:08;5.73;;;2.70;;
10511;SDS011;5304;48.604;2.096;2022-08-03T05:10:52;3.87;;;2.63;;
10511;SDS011;5304;48.604;2.096;2022-08-03T05:13:37;5.80;;;2.93;;
10511;SDS011;5304;48.604;2.096;2022-08-03T05:16:21;4.40;;;2.83;;
10511;SDS011;5304;48.604;2.096;2022-08-03T05:19:08;5.00;;;3.33;;
10511;SDS011;5304;48.604;2.096;2022-08-03T05:21:52;3.33;;;2.50;;
10511;SDS011;5304;48.604;2.096;2022-08-03T05:24:36;6.07;;;3.33;;
10511;SDS011;5304;48.604;2.096;2022-08-03T05:27:21;7.87;;;3.00;;
10511;SDS011;5304;48.604;2.096;2022-08-03T05:30:06;5.73;;;3.07;;
10511;SDS011;5304;48.604;2.096;2022-08-03T05:32:51;5.10;;;2.93;;
10511;SDS011;5304;48.604;2.096;2022-08-03T05:35:36;7.33;;;3.17;;
10511;SDS011;5304;48.604;2.096;2022-08-03T05:38:22;6.00;;;2.90;;
10511;SDS011;5304;48.604;2.096;2022-08-03T05:41:06;4.33;;;2.97;;
10511;SDS011;5304;48.604;2.096;2022-08-03T05:43:52;5.13;;;2.90;;
10511;SDS011;5304;48.604;2.096;2022-08-03T05:46:37;4.63;;;3.20;;
10511;SDS011;5304;48.604;2.096;2022-08-03T05:49:21;5.00;;;3.17;;
10511;SDS011;5304;48.604;2.096;2022-08-03T05:52:06;6.73;;;3.20;;
10511;SDS011;5304;48.604;2.096;2022-08-03T05:54:50;5.57;;;2.70;;
10511;SDS011;5304;48.604;2.096;2022-08-03T05:57:35;7.57;;;3.20;;
10511;SDS011;5304;48.604;2.096;2022-08-03T06:00:20;6.00;;;3.10;;
10511;SDS011;5304;48.604;2.096;2022-08-03T06:03:04;5.40;;;3.43;;
10511;SDS011;5304;48.604;2.096;2022-08-03T06:05:49;6.37;;;3.27;;
10511;SDS011;5304;48.604;2.096;2022-08-03T06:08:34;5.10;;;3.30;;
10511;SDS011;5304;48.604;2.096;2022-08-03T06:11:18;4.40;;;3.00;;
10511;SDS011;5304;48.604;2.096;2022-08-03T06:14:03;3.73;;;3.30;;
10511;SDS011;5304;48.604;2.096;2022-08-03T06:16:47;6.27;;;3.40;;
10511;SDS011;5304;48.604;2.096;2022-08-03T06:19:32;5.73;;;3.47;;
10511;SDS011;5304;48.604;2.096;2022-08-03T06:22:16;8.68;;;3.30;;
10511;SDS011;5304;48.604;2.096;2022-08-03T06:25:01;6.05;;;3.10;;
10511;SDS011;5304;48.604;2.096;2022-08-03T06:27:46;7.35;;;3.28;;
10511;SDS011;5304;48.604;2.096;2022-08-03T06:30:30;4.30;;;2.97;;
10511;SDS011;5304;48.604;2.096;2022-08-03T06:33:15;3.45;;;2.80;;
10511;SDS011;5304;48.604;2.096;2022-08-03T06:35:59;3.63;;;2.70;;
10511;SDS011;5304;48.604;2.096;2022-08-03T06:38:43;7.45;;;3.00;;
10511;SDS011;5304;48.604;2.096;2022-08-03T06:41:28;3.92;;;2.80;;
10511;SDS011;5304;48.604;2.096;2022-08-03T06:44:12;3.63;;;2.70;;
10511;SDS011;5304;48.604;2.096;2022-08-03T06:46:57;5.28;;;2.92;;
10511;SDS011;5304;48.604;2.096;2022-08-03T06:49:41;8.85;;;2.97;;
10511;SDS011;5304;48.604;2.096;2022-08-03T06:52:26;3.80;;;2.90;;
10511;SDS011;5304;48.604;2.096;2022-08-03T06:55:10;3.78;;;2.90;;
10511;SDS011;5304;48.604;2.096;2022-08-03T06:57:54;5.13;;;2.83;;
10511;SDS011;5304;48.604;2.096;2022-08-03T07:00:39;6.88;;;3.28;;
10511;SDS011;5304;48.604;2.096;2022-08-03T07:03:24;12.13;;;3.92;;
10511;SDS011;5304;48.604;2.096;2022-08-03T07:06:08;6.07;;;3.55;;
10511;SDS011;5304;48.604;2.096;2022-08-03T07:08:53;9.52;;;3.95;;
10511;SDS011;5304;48.604;2.096;2022-08-03T07:11:37;7.25;;;3.97;;
10511;SDS011;5304;48.604;2.096;2022-08-03T07:14:22;6.97;;;3.92;;
10511;SDS011;5304;48.604;2.096;2022-08-03T07:17:06;5.38;;;3.25;;
10511;SDS011;5304;48.604;2.096;2022-08-03T07:19:51;6.97;;;3.28;;
10511;SDS011;5304;48.604;2.096;2022-08-03T07:22:35;5.63;;;3.10;;
10511;SDS011;5304;48.604;2.096;2022-08-03T07:25:20;4.55;;;3.00;;
10511;SDS011;5304;48.604;2.096;2022-08-03T07:28:04;4.82;;;3.05;;
10511;SDS011;5304;48.604;2.096;2022-08-03T07:30:49;5.63;;;3.22;;
10511;SDS011;5304;48.604;2.096;2022-08-03T07:33:33;5.97;;;3.00;;
10511;SDS011;5304;48.604;2.096;2022-08-03T07:36:18;4.15;;;2.80;;
10511;SDS011;5304;48.604;2.096;2022-08-03T07:39:03;4.03;;;2.72;;
10511;SDS011;5304;48.604;2.096;2022-08-03T07:41:48;6.47;;;2.97;;
10511;SDS011;5304;48.604;2.096;2022-08-03T07:44:35;3.35;;;2.92;;
10511;SDS011;5304;48.604;2.096;2022-08-03T07:47:22;4.72;;;2.70;;
10511;SDS011;5304;48.604;2.096;2022-08-03T07:50:08;3.15;;;2.65;;
10511;SDS011;5304;48.604;2.096;2022-08-03T07:52:53;6.10;;;2.60;;
10511;SDS011;5304;48.604;2.096;2022-08-03T07:55:38;8.80;;;2.83;;
10511;SDS011;5304;48.604;2.096;2022-08-03T07:58:23;7.88;;;3.10;;
10511;SDS011;5304;48.604;2.096;2022-08-03T08:01:07;5.28;;;2.95;;
10511;SDS011;5304;48.604;2.096;2022-08-03T08:03:52;3.22;;;2.65;;
10511;SDS011;5304;48.604;2.096;2022-08-03T08:06:36;4.68;;;2.83;;
10511;SDS011;5304;48.604;2.096;2022-08-03T08:09:21;3.72;;;2.92;;
10511;SDS011;5304;48.604;2.096;2022-08-03T08:12:06;4.40;;;3.13;;
10511;SDS011;5304;48.604;2.096;2022-08-03T08:14:51;8.07;;;3.08;;
10511;SDS011;5304;48.604;2.096;2022-08-03T08:17:42;4.85;;;2.83;;
10511;SDS011;5304;48.604;2.096;2022-08-03T08:20:37;3.10;;;2.80;;
10511;SDS011;5304;48.604;2.096;2022-08-03T08:23:22;7.57;;;3.30;;
10511;SDS011;5304;48.604;2.096;2022-08-03T08:26:06;6.65;;;3.08;;
10511;SDS011;5304;48.604;2.096;2022-08-03T08:28:51;7.95;;;2.72;;
10511;SDS011;5304;48.604;2.096;2022-08-03T08:31:35;3.20;;;2.70;;
10511;SDS011;5304;48.604;2.096;2022-08-03T08:34:20;3.78;;;2.70;;
10511;SDS011;5304;48.604;2.096;2022-08-03T08:37:04;7.50;;;3.05;;
10511;SDS011;5304;48.604;2.096;2022-08-03T08:39:49;6.40;;;2.90;;
10511;SDS011;5304;48.604;2.096;2022-08-03T08:42:33;3.85;;;2.80;;
10511;SDS011;5304;48.604;2.096;2022-08-03T08:45:21;4.60;;;2.65;;
10511;SDS011;5304;48.604;2.096;2022-08-03T08:48:05;6.38;;;2.40;;
10511;SDS011;5304;48.604;2.096;2022-08-03T08:50:52;9.32;;;2.72;;
10511;SDS011;5304;48.604;2.096;2022-08-03T08:53:39;8.05;;;2.67;;
10511;SDS011;5304;48.604;2.096;2022-08-03T08:56:26;5.80;;;2.72;;
10511;SDS011;5304;48.604;2.096;2022-08-03T08:59:11;7.60;;;2.97;;
10511;SDS011;5304;48.604;2.096;2022-08-03T09:01:57;3.20;;;2.90;;
10511;SDS011;5304;48.604;2.096;2022-08-03T09:04:41;5.05;;;2.63;;
10511;SDS011;5304;48.604;2.096;2022-08-03T09:07:28;6.28;;;2.97;;
10511;SDS011;5304;48.604;2.096;2022-08-03T09:10:13;2.97;;;2.58;;
10511;SDS011;5304;48.604;2.096;2022-08-03T09:13:04;5.57;;;2.83;;
10511;SDS011;5304;48.604;2.096;2022-08-03T09:19:02;3.40;;;2.83;;
10511;SDS011;5304;48.604;2.096;2022-08-03T09:22:07;3.95;;;2.67;;
10511;SDS011;5304;48.604;2.096;2022-08-03T09:24:56;2.70;;;2.50;;
10511;SDS011;5304;48.604;2.096;2022-08-03T09:27:42;3.10;;;2.50;;
10511;SDS011;5304;48.604;2.096;2022-08-03T09:30:27;3.53;;;2.53;;
10511;SDS011;5304;48.604;2.096;2022-08-03T09:33:12;3.42;;;2.80;;
10511;SDS011;5304;48.604;2.096;2022-08-03T09:36:01;4.03;;;2.70;;
10511;SDS011;5304;48.604;2.096;2022-08-03T09:38:59;2.47;;;2.25;;
10511;SDS011;5304;48.604;2.096;2022-08-03T09:41:47;4.38;;;2.42;;
10511;SDS011;5304;48.604;2.096;2022-08-03T09:44:50;4.63;;;2.40;;
10511;SDS011;5304;48.604;2.096;2022-08-03T09:47:34;3.97;;;2.47;;
10511;SDS011;5304;48.604;2.096;2022-08-03T09:50:19;3.70;;;2.30;;
10511;SDS011;5304;48.604;2.096;2022-08-03T09:53:03;6.80;;;2.42;;
10511;SDS011;5304;48.604;2.096;2022-08-03T09:55:58;8.10;;;2.50;;
10511;SDS011;5304;48.604;2.096;2022-08-03T09:58:45;5.63;;;2.17;;
10511;SDS011;5304;48.604;2.096;2022-08-03T10:01:31;2.97;;;2.22;;
10511;SDS011;5304;48.604;2.096;2022-08-03T10:04:17;2.30;;;2.10;;
10511;SDS011;5304;48.604;2.096;2022-08-03T10:07:05;3.92;;;2.00;;
10511;SDS011;5304;48.604;2.096;2022-08-03T10:09:58;2.47;;;1.80;;
10511;SDS011;5304;48.604;2.096;2022-08-03T10:12:44;3.97;;;2.20;;
10511;SDS011;5304;48.604;2.096;2022-08-03T10:15:31;4.65;;;1.88;;
10511;SDS011;5304;48.604;2.096;2022-08-03T10:18:16;2.15;;;2.00;;
10511;SDS011;5304;48.604;2.096;2022-08-03T10:21:04;6.85;;;1.92;;
10511;SDS011;5304;48.604;2.096;2022-08-03T10:23:52;1.95;;;1.67;;
10511;SDS011;5304;48.604;2.096;2022-08-03T10:26:38;3.08;;;2.38;;
10511;SDS011;5304;48.604;2.096;2022-08-03T10:29:23;4.18;;;1.73;;
10511;SDS011;5304;48.604;2.096;2022-08-03T10:32:33;3.90;;;1.65;;
10511;SDS011;5304;48.604;2.096;2022-08-03T10:35:20;5.78;;;2.72;;
10511;SDS011;5304;48.604;2.096;2022-08-03T10:38:11;4.47;;;1.77;;
10511;SDS011;5304;48.604;2.096;2022-08-03T10:41:00;3.92;;;2.10;;
10511;SDS011;5304;48.604;2.096;2022-08-03T10:43:49;3.55;;;2.15;;
10511;SDS011;5304;48.604;2.096;2022-08-03T10:46:41;4.30;;;2.35;;
10511;SDS011;5304;48.604;2.096;2022-08-03T10:49:27;2.72;;;1.98;;
10511;SDS011;5304;48.604;2.096;2022-08-03T10:52:12;5.32;;;2.20;;
10511;SDS011;5304;48.604;2.096;2022-08-03T10:54:56;2.85;;;2.25;;
10511;SDS011;5304;48.604;2.096;2022-08-03T10:58:00;2.75;;;2.00;;
10511;SDS011;5304;48.604;2.096;2022-08-03T11:00:49;2.88;;;1.80;;
10511;SDS011;5304;48.604;2.096;2022-08-03T11:03:34;2.17;;;2.08;;
10511;SDS011;5304;48.604;2.096;2022-08-03T11:06:38;2.10;;;1.90;;
10511;SDS011;5304;48.604;2.096;2022-08-03T11:09:22;2.88;;;2.03;;
10511;SDS011;5304;48.604;2.096;2022-08-03T11:12:23;5.03;;;1.80;;
10511;SDS011;5304;48.604;2.096;2022-08-03T11:15:12;4.25;;;2.13;;
10511;SDS011;5304;48.604;2.096;2022-08-03T11:18:10;2.35;;;1.98;;
10511;SDS011;5304;48.604;2.096;2022-08-03T11:20:57;4.50;;;2.20;;
10511;SDS011;5304;48.604;2.096;2022-08-03T11:23:46;3.42;;;1.90;;
10511;SDS011;5304;48.604;2.096;2022-08-03T11:26:31;6.03;;;2.05;;
10511;SDS011;5304;48.604;2.096;2022-08-03T11:29:26;3.92;;;2.13;;
10511;SDS011;5304;48.604;2.096;2022-08-03T11:32:31;2.47;;;2.03;;
10511;SDS011;5304;48.604;2.096;2022-08-03T11:35:33;4.75;;;2.22;;
10511;SDS011;5304;48.604;2.096;2022-08-03T11:38:26;3.85;;;1.95;;
10511;SDS011;5304;48.604;2.096;2022-08-03T11:41:30;5.07;;;2.10;;
10511;SDS011;5304;48.604;2.096;2022-08-03T11:47:24;2.10;;;2.00;;
10511;SDS011;5304;48.604;2.096;2022-08-03T11:50:12;3.53;;;2.00;;
10511;SDS011;5304;48.604;2.096;2022-08-03T11:52:57;4.15;;;1.85;;
10511;SDS011;5304;48.604;2.096;2022-08-03T11:55:42;2.72;;;2.13;;
10511;SDS011;5304;48.604;2.096;2022-08-03T11:58:31;4.88;;;1.95;;
10511;SDS011;5304;48.604;2.096;2022-08-03T12:01:16;2.78;;;1.80;;
10511;SDS011;5304;48.604;2.096;2022-08-03T12:04:04;2.50;;;2.30;;
10511;SDS011;5304;48.604;2.096;2022-08-03T12:06:59;2.40;;;1.92;;
10511;SDS011;5304;48.604;2.096;2022-08-03T12:12:53;2.30;;;2.10;;
10511;SDS011;5304;48.604;2.096;2022-08-03T12:15:42;1.92;;;1.83;;
10511;SDS011;5304;48.604;2.096;2022-08-03T12:18:27;3.15;;;1.75;;
10511;SDS011;5304;48.604;2.096;2022-08-03T12:21:11;3.70;;;2.05;;
10511;SDS011;5304;48.604;2.096;2022-08-03T12:23:57;3.65;;;1.88;;
10511;SDS011;5304;48.604;2.096;2022-08-03T12:29:28;3.83;;;2.08;;
10511;SDS011;5304;48.604;2.096;2022-08-03T12:32:14;5.53;;;2.15;;
10511;SDS011;5304;48.604;2.096;2022-08-03T12:34:58;3.22;;;1.98;;
10511;SDS011;5304;48.604;2.096;2022-08-03T12:37:46;3.70;;;2.28;;
10511;SDS011;5304;48.604;2.096;2022-08-03T12:40:32;3.13;;;1.85;;
10511;SDS011;5304;48.604;2.096;2022-08-03T12:43:16;6.53;;;2.00;;
10511;SDS011;5304;48.604;2.096;2022-08-03T12:46:13;6.03;;;1.98;;
10511;SDS011;5304;48.604;2.096;2022-08-03T12:54:33;3.53;;;2.00;;
10511;SDS011;5304;48.604;2.096;2022-08-03T12:57:18;2.83;;;1.83;;
10511;SDS011;5304;48.604;2.096;2022-08-03T13:00:09;1.90;;;1.80;;
10511;SDS011;5304;48.604;2.096;2022-08-03T13:02:59;4.05;;;1.88;;
10511;SDS011;5304;48.604;2.096;2022-08-03T13:05:46;2.10;;;1.90;;
10511;SDS011;5304;48.604;2.096;2022-08-03T13:08:31;2.28;;;1.88;;
10511;SDS011;5304;48.604;2.096;2022-08-03T13:11:19;2.15;;;2.05;;
10511;SDS011;5304;48.604;2.096;2022-08-03T13:14:07;3.65;;;2.17;;
10511;SDS011;5304;48.604;2.096;2022-08-03T13:16:52;2.30;;;2.10;;
10511;SDS011;5304;48.604;2.096;2022-08-03T13:19:37;2.75;;;2.17;;
10511;SDS011;5304;48.604;2.096;2022-08-03T13:22:23;2.35;;;2.10;;
10511;SDS011;5304;48.604;2.096;2022-08-03T13:25:10;2.75;;;2.03;;
10511;SDS011;5304;48.604;2.096;2022-08-03T13:27:54;2.47;;;2.05;;
10511;SDS011;5304;48.604;2.096;2022-08-03T13:30:38;2.05;;;1.85;;
10511;SDS011;5304;48.604;2.096;2022-08-03T13:33:25;2.33;;;1.83;;
10511;SDS011;5304;48.604;2.096;2022-08-03T13:36:10;2.92;;;1.88;;
10511;SDS011;5304;48.604;2.096;2022-08-03T13:38:55;2.45;;;2.15;;
10511;SDS011;5304;48.604;2.096;2022-08-03T13:41:39;2.85;;;1.95;;
10511;SDS011;5304;48.604;2.096;2022-08-03T13:44:24;2.83;;;1.67;;
10511;SDS011;5304;48.604;2.096;2022-08-03T13:47:08;4.20;;;2.00;;
10511;SDS011;5304;48.604;2.096;2022-08-03T13:49:53;1.75;;;1.65;;
10511;SDS011;5304;48.604;2.096;2022-08-03T13:52:37;2.30;;;1.73;;
10511;SDS011;5304;48.604;2.096;2022-08-03T13:55:22;4.32;;;2.00;;
10511;SDS011;5304;48.604;2.096;2022-08-03T13:58:07;2.55;;;1.80;;
10511;SDS011;5304;48.604;2.096;2022-08-03T14:00:54;2.28;;;1.85;;
10511;SDS011;5304;48.604;2.096;2022-08-03T14:03:39;2.67;;;2.03;;
10511;SDS011;5304;48.604;2.096;2022-08-03T14:06:23;2.03;;;1.75;;
10511;SDS011;5304;48.604;2.096;2022-08-03T14:09:09;3.33;;;1.70;;
10511;SDS011;5304;48.604;2.096;2022-08-03T14:11:57;2.92;;;1.88;;
10511;SDS011;5304;48.604;2.096;2022-08-03T14:14:42;1.70;;;1.60;;
10511;SDS011;5304;48.604;2.096;2022-08-03T14:17:26;5.43;;;2.03;;
10511;SDS011;5304;48.604;2.096;2022-08-03T14:20:11;3.30;;;2.03;;
10511;SDS011;5304;48.604;2.096;2022-08-03T14:22:57;4.30;;;2.00;;
10511;SDS011;5304;48.604;2.096;2022-08-03T14:25:41;2.97;;;2.00;;
10511;SDS011;5304;48.604;2.096;2022-08-03T14:28:26;2.95;;;1.90;;
10511;SDS011;5304;48.604;2.096;2022-08-03T14:31:11;1.98;;;1.88;;
10511;SDS011;5304;48.604;2.096;2022-08-03T14:33:55;2.42;;;2.22;;
10511;SDS011;5304;48.604;2.096;2022-08-03T14:36:40;3.53;;;1.70;;
10511;SDS011;5304;48.604;2.096;2022-08-03T14:39:25;4.55;;;2.03;;
10511;SDS011;5304;48.604;2.096;2022-08-03T14:42:09;4.88;;;1.77;;
10511;SDS011;5304;48.604;2.096;2022-08-03T14:44:54;1.67;;;1.58;;
10511;SDS011;5304;48.604;2.096;2022-08-03T14:47:38;3.10;;;1.80;;
10511;SDS011;5304;48.604;2.096;2022-08-03T14:50:23;3.08;;;1.65;;
10511;SDS011;5304;48.604;2.096;2022-08-03T14:53:08;2.88;;;1.85;;
10511;SDS011;5304;48.604;2.096;2022-08-03T14:55:52;3.05;;;2.30;;
10511;SDS011;5304;48.604;2.096;2022-08-03T14:58:37;1.75;;;1.60;;
10511;SDS011;5304;48.604;2.096;2022-08-03T15:01:21;3.10;;;1.90;;
10511;SDS011;5304;48.604;2.096;2022-08-03T15:04:05;2.58;;;1.80;;
10511;SDS011;5304;48.604;2.096;2022-08-03T15:06:50;1.88;;;1.65;;
10511;SDS011;5304;48.604;2.096;2022-08-03T15:09:34;1.70;;;1.60;;
10511;SDS011;5304;48.604;2.096;2022-08-03T15:12:18;2.17;;;1.98;;
10511;SDS011;5304;48.604;2.096;2022-08-03T15:15:04;2.25;;;1.58;;
10511;SDS011;5304;48.604;2.096;2022-08-03T15:17:48;2.58;;;1.58;;
10511;SDS011;5304;48.604;2.096;2022-08-03T15:20:33;3.72;;;2.22;;
10511;SDS011;5304;48.604;2.096;2022-08-03T15:23:18;4.22;;;1.73;;
10511;SDS011;5304;48.604;2.096;2022-08-03T15:26:02;1.88;;;1.70;;
10511;SDS011;5304;48.604;2.096;2022-08-03T15:28:46;2.25;;;2.03;;
10511;SDS011;5304;48.604;2.096;2022-08-03T15:31:31;1.60;;;1.50;;
10511;SDS011;5304;48.604;2.096;2022-08-03T15:34:16;1.90;;;1.80;;
10511;SDS011;5304;48.604;2.096;2022-08-03T15:37:01;2.03;;;1.70;;
10511;SDS011;5304;48.604;2.096;2022-08-03T15:39:48;1.80;;;1.70;;
10511;SDS011;5304;48.604;2.096;2022-08-03T15:42:32;3.35;;;1.52;;
10511;SDS011;5304;48.604;2.096;2022-08-03T15:45:17;2.67;;;1.70;;
10511;SDS011;5304;48.604;2.096;2022-08-03T15:48:02;2.35;;;1.80;;
10511;SDS011;5304;48.604;2.096;2022-08-03T15:50:47;2.28;;;1.42;;
10511;SDS011;5304;48.604;2.096;2022-08-03T15:53:32;1.70;;;1.60;;
10511;SDS011;5304;48.604;2.096;2022-08-03T15:56:17;2.28;;;1.77;;
10511;SDS011;5304;48.604;2.096;2022-08-03T15:59:01;3.00;;;2.10;;
10511;SDS011;5304;48.604;2.096;2022-08-03T16:01:46;2.47;;;1.38;;
10511;SDS011;5304;48.604;2.096;2022-08-03T16:04:32;1.98;;;1.73;;
10511;SDS011;5304;48.604;2.096;2022-08-03T16:07:16;2.38;;;1.80;;
10511;SDS011;5304;48.604;2.096;2022-08-03T16:10:20;2.58;;;1.73;;
10511;SDS011;5304;48.604;2.096;2022-08-03T16:13:05;3.90;;;1.77;;
10511;SDS011;5304;48.604;2.096;2022-08-03T16:15:50;7.35;;;1.70;;
10511;SDS011;5304;48.604;2.096;2022-08-03T16:18:35;3.78;;;1.42;;
10511;SDS011;5304;48.604;2.096;2022-08-03T16:21:21;3.83;;;1.67;;
10511;SDS011;5304;48.604;2.096;2022-08-03T16:24:06;2.05;;;1.63;;
10511;SDS011;5304;48.604;2.096;2022-08-03T16:26:50;4.47;;;1.52;;
10511;SDS011;5304;48.604;2.096;2022-08-03T16:29:35;2.17;;;1.40;;
10511;SDS011;5304;48.604;2.096;2022-08-03T16:32:19;4.55;;;1.83;;
10511;SDS011;5304;48.604;2.096;2022-08-03T16:35:04;1.60;;;1.50;;
10511;SDS011;5304;48.604;2.096;2022-08-03T16:37:50;1.90;;;1.80;;
10511;SDS011;5304;48.604;2.096;2022-08-03T16:40:35;2.03;;;1.25;;
10511;SDS011;5304;48.604;2.096;2022-08-03T16:43:20;2.72;;;1.73;;
10511;SDS011;5304;48.604;2.096;2022-08-03T16:46:05;2.42;;;1.55;;
10511;SDS011;5304;48.604;2.096;2022-08-03T16:48:50;2.08;;;1.88;;
10511;SDS011;5304;48.604;2.096;2022-08-03T16:51:34;4.90;;;1.67;;
10511;SDS011;5304;48.604;2.096;2022-08-03T16:54:19;3.40;;;1.65;;
10511;SDS011;5304;48.604;2.096;2022-08-03T16:57:04;2.20;;;1.60;;
10511;SDS011;5304;48.604;2.096;2022-08-03T16:59:49;1.70;;;1.60;;
10511;SDS011;5304;48.604;2.096;2022-08-03T17:02:34;1.35;;;1.35;;
10511;SDS011;5304;48.604;2.096;2022-08-03T17:05:19;4.22;;;1.90;;
10511;SDS011;5304;48.604;2.096;2022-08-03T17:08:04;1.67;;;1.55;;
10511;SDS011;5304;48.604;2.096;2022-08-03T17:10:49;2.65;;;1.50;;
10511;SDS011;5304;48.604;2.096;2022-08-03T17:13:34;1.63;;;1.50;;
10511;SDS011;5304;48.604;2.096;2022-08-03T17:16:18;3.60;;;1.60;;
10511;SDS011;5304;48.604;2.096;2022-08-03T17:19:04;2.00;;;1.60;;
10511;SDS011;5304;48.604;2.096;2022-08-03T17:22:23;2.78;;;1.73;;
10511;SDS011;5304;48.604;2.096;2022-08-03T17:25:04;1.50;;;1.40;;
10511;SDS011;5304;48.604;2.096;2022-08-03T17:27:51;1.65;;;1.55;;
10511;SDS011;5304;48.604;2.096;2022-08-03T17:30:36;1.73;;;1.63;;